createdAt,value
2022-11-27T00:01:10.732Z,93.80
2022-11-27T00:03:13.841Z,93.92
2022-11-27T00:05:17.138Z,93.45
2022-11-27T00:07:20.409Z,93.70
2022-11-27T00:09:23.640Z,94.07
2022-11-27T00:11:29.815Z,93.71
2022-11-27T00:13:32.888Z,93.59
2022-11-27T00:15:35.974Z,93.79
2022-11-27T00:17:39.064Z,93.93
2022-11-27T00:19:42.400Z,93.38
2022-11-27T00:21:45.537Z,93.54
2022-11-27T00:23:48.869Z,93.24
2022-11-27T00:25:52.551Z,93.93
2022-11-27T00:27:56.970Z,93.01
2022-11-27T00:29:59.956Z,94.03
2022-11-27T00:32:03.525Z,93.57
2022-11-27T00:34:08.665Z,92.47
2022-11-27T00:36:12.725Z,93.23
2022-11-27T00:38:15.856Z,92.60
2022-11-27T00:40:19.099Z,93.21
2022-11-27T00:42:22.126Z,92.95
2022-11-27T00:44:26.553Z,94.16
2022-11-27T00:46:34.117Z,92.87
2022-11-27T00:48:37.526Z,93.88
2022-11-27T00:50:40.811Z,93.70
2022-11-27T00:52:43.796Z,92.92
2022-11-27T00:54:46.848Z,94.11
2022-11-27T00:56:49.827Z,93.77
2022-11-27T00:58:53.046Z,93.53
2022-11-27T01:00:57.757Z,92.94
2022-11-27T01:03:00.818Z,92.64
2022-11-27T01:05:03.813Z,93.99
2022-11-27T01:07:06.751Z,93.15
2022-11-27T01:09:10.749Z,93.29
2022-11-27T01:11:15.713Z,93.02
2022-11-27T01:13:18.768Z,93.37
2022-11-27T01:15:21.961Z,93.86
2022-11-27T01:17:26.552Z,92.69
2022-11-27T01:19:29.486Z,93.87
2022-11-27T01:21:34.674Z,92.67
2022-11-27T01:23:37.779Z,93.13
2022-11-27T01:25:40.804Z,94.05
2022-11-27T01:27:43.744Z,93.59
2022-11-27T01:29:46.743Z,93.51
2022-11-27T01:31:49.876Z,93.43
2022-11-27T01:33:56.431Z,94.08
2022-11-27T01:36:00.991Z,93.23
2022-11-27T01:38:04.412Z,92.46
2022-11-27T01:40:08.983Z,92.70
2022-11-27T01:42:12.390Z,93.59
2022-11-27T01:44:49.892Z,93.40
2022-11-27T01:46:54.717Z,93.38
2022-11-27T01:49:02.713Z,92.63
2022-11-27T01:51:06.017Z,93.22
2022-11-27T01:53:14.337Z,94.30
2022-11-27T01:55:22.964Z,93.82
2022-11-27T01:57:28.599Z,93.47
2022-11-27T01:59:31.756Z,93.56
2022-11-27T02:01:34.973Z,94.49
2022-11-27T02:03:38.711Z,94.75
2022-11-27T02:05:44.400Z,94.26
2022-11-27T02:07:48.465Z,94.33
2022-11-27T02:09:52.534Z,94.55
2022-11-27T02:12:02.719Z,93.51
2022-11-27T02:14:12.086Z,92.77
2022-11-27T02:16:20.721Z,92.60
2022-11-27T02:18:32.287Z,91.91
2022-11-27T02:20:41.891Z,91.94
2022-11-27T02:22:59.213Z,92.39
2022-11-27T02:25:07.945Z,92.08
2022-11-27T02:27:34.647Z,93.38
2022-11-27T02:29:40.879Z,93.36
2022-11-27T02:31:50.882Z,92.18
2022-11-27T02:33:56.265Z,93.10
2022-11-27T02:36:03.715Z,92.65
2022-11-27T02:38:10.265Z,92.96
2022-11-27T02:40:18.503Z,93.00
2022-11-27T02:42:22.668Z,93.52
2022-11-27T02:44:27.463Z,94.13
2022-11-27T02:46:32.544Z,93.54
2022-11-27T02:48:40.201Z,93.54
2022-11-27T02:50:45.395Z,93.29
2022-11-27T02:52:50.754Z,93.13
2022-11-27T02:54:57.153Z,93.64
2022-11-27T02:57:03.627Z,93.38
2022-11-27T02:59:10.543Z,93.84
2022-11-27T03:01:15.143Z,93.09
2022-11-27T03:03:22.536Z,92.85
2022-11-27T03:05:29.792Z,92.70
2022-11-27T03:07:38.897Z,93.06
2022-11-27T03:09:46.282Z,91.70
2022-11-27T03:11:49.937Z,92.45
2022-11-27T03:13:55.112Z,92.31
2022-11-27T03:16:04.471Z,92.38
2022-11-27T03:18:13.621Z,91.93
2022-11-27T03:20:23.039Z,92.37
2022-11-27T03:22:28.017Z,92.76
2022-11-27T03:24:32.158Z,92.04
2022-11-27T03:26:35.865Z,92.83
2022-11-27T03:28:39.421Z,92.47
2022-11-27T03:30:42.862Z,92.98
2022-11-27T03:32:46.920Z,92.90
2022-11-27T03:34:50.334Z,93.67
2022-11-27T03:36:54.904Z,92.56
2022-11-27T03:38:58.071Z,92.33
2022-11-27T03:41:04.444Z,92.97
2022-11-27T03:43:12.204Z,92.97
2022-11-27T03:45:18.956Z,92.59
2022-11-27T03:47:35.657Z,92.98
2022-11-27T03:49:50.360Z,92.57
2022-11-27T03:51:59.845Z,92.81
2022-11-27T03:54:06.715Z,92.55
2022-11-27T03:56:14.483Z,92.43
2022-11-27T03:58:22.222Z,92.12
2022-11-27T04:00:25.590Z,92.00
2022-11-27T04:02:31.505Z,92.42
2022-11-27T04:04:34.943Z,92.19
2022-11-27T04:06:37.987Z,91.84
2022-11-27T04:08:42.943Z,92.66
2022-11-27T04:10:45.978Z,92.91
2022-11-27T04:12:49.005Z,92.82
2022-11-27T04:14:52.262Z,93.25
2022-11-27T04:16:55.222Z,92.69
2022-11-27T04:18:58.279Z,93.31
2022-11-27T04:21:01.569Z,93.08
2022-11-27T04:23:04.821Z,93.26
2022-11-27T04:25:10.375Z,92.62
2022-11-27T04:27:13.421Z,92.62
2022-11-27T04:29:16.361Z,92.83
2022-11-27T04:31:19.396Z,92.62
2022-11-27T04:33:22.617Z,91.43
2022-11-27T04:35:25.634Z,92.00
2022-11-27T04:37:28.617Z,91.20
2022-11-27T04:39:31.781Z,91.08
2022-11-27T04:41:36.062Z,90.84
2022-11-27T04:43:38.959Z,91.96
2022-11-27T04:45:43.813Z,91.12
2022-11-27T04:47:46.826Z,91.39
2022-11-27T04:49:49.787Z,91.98
2022-11-27T04:51:52.735Z,91.40
2022-11-27T04:53:55.791Z,91.67
2022-11-27T04:55:58.769Z,92.04
2022-11-27T04:58:03.132Z,92.05
2022-11-27T05:00:07.469Z,91.60
2022-11-27T05:02:11.861Z,91.79
2022-11-27T05:04:14.969Z,91.15
2022-11-27T05:06:17.947Z,91.55
2022-11-27T05:08:20.962Z,91.27
2022-11-27T05:10:23.964Z,91.90
2022-11-27T05:12:26.966Z,92.03
2022-11-27T05:14:31.606Z,91.94
2022-11-27T05:16:34.577Z,91.96
2022-11-27T05:18:37.735Z,91.73
2022-11-27T05:20:40.909Z,92.36
2022-11-27T05:22:44.272Z,92.20
2022-11-27T05:24:47.209Z,92.19
2022-11-27T05:26:50.721Z,92.09
2022-11-27T05:28:53.765Z,92.33
2022-11-27T05:30:58.109Z,92.76
2022-11-27T05:33:01.204Z,92.08
2022-11-27T05:35:04.416Z,92.51
2022-11-27T05:37:07.460Z,91.52
2022-11-27T05:39:11.153Z,91.38
2022-11-27T05:41:14.224Z,91.32
2022-11-27T05:43:17.173Z,90.71
2022-11-27T05:45:20.504Z,91.30
2022-11-27T05:47:24.884Z,90.92
2022-11-27T05:49:27.957Z,91.33
2022-11-27T05:51:31.177Z,91.19
2022-11-27T05:53:34.751Z,91.71
2022-11-27T05:55:37.895Z,91.50
2022-11-27T05:57:40.905Z,91.03
2022-11-27T05:59:43.908Z,90.98
2022-11-27T06:01:46.906Z,91.54
2022-11-27T06:03:51.277Z,91.04
2022-11-27T06:05:54.369Z,91.79
2022-11-27T06:07:57.407Z,92.02
2022-11-27T06:10:00.433Z,91.56
2022-11-27T06:12:03.387Z,91.49
2022-11-27T06:14:08.539Z,91.95
2022-11-27T06:16:13.765Z,91.61
2022-11-27T06:18:16.700Z,91.26
2022-11-27T06:20:21.360Z,91.13
2022-11-27T06:22:24.381Z,90.83
2022-11-27T06:24:27.874Z,90.18
2022-11-27T06:26:32.753Z,89.59
2022-11-27T06:28:35.682Z,89.94
2022-11-27T06:30:39.089Z,89.97
2022-11-27T06:32:42.332Z,90.15
2022-11-27T06:34:45.287Z,90.13
2022-11-27T06:36:50.613Z,90.05
2022-11-27T06:38:53.695Z,90.40
2022-11-27T06:40:56.660Z,90.69
2022-11-27T06:43:02.867Z,89.94
2022-11-27T06:45:08.198Z,89.96
2022-11-27T06:47:11.358Z,90.67
2022-11-27T06:49:14.456Z,91.25
2022-11-27T06:51:18.961Z,90.64
2022-11-27T06:53:23.748Z,91.21
2022-11-27T06:55:26.912Z,91.35
2022-11-27T06:57:30.037Z,90.70
2022-11-27T06:59:33.213Z,90.70
2022-11-27T07:01:36.315Z,89.65
2022-11-27T07:03:39.677Z,89.10
2022-11-27T07:05:42.834Z,89.03
2022-11-27T07:07:45.871Z,88.92
2022-11-27T07:09:50.277Z,88.79
2022-11-27T07:11:53.307Z,88.68
2022-11-27T07:13:58.173Z,88.20
2022-11-27T07:16:02.336Z,88.54
2022-11-27T07:18:05.387Z,87.93
2022-11-27T07:20:09.586Z,87.66
2022-11-27T07:22:12.620Z,87.63
2022-11-27T07:24:15.573Z,87.95
2022-11-27T07:26:21.834Z,87.71
2022-11-27T07:28:25.871Z,86.87
2022-11-27T07:30:28.987Z,86.72
2022-11-27T07:32:32.569Z,86.57
2022-11-27T07:34:35.568Z,85.93
2022-11-27T07:36:38.579Z,86.83
2022-11-27T07:38:41.747Z,86.54
2022-11-27T07:40:44.739Z,87.44
2022-11-27T07:42:50.639Z,86.56
2022-11-27T07:44:53.686Z,87.85
2022-11-27T07:46:57.496Z,89.07
2022-11-27T07:49:01.275Z,88.13
2022-11-27T07:51:07.048Z,88.24
2022-11-27T07:53:10.516Z,88.27
2022-11-27T07:55:13.610Z,89.40
2022-11-27T07:57:16.674Z,88.46
2022-11-27T07:59:21.152Z,87.77
2022-11-27T08:01:24.244Z,88.76
2022-11-27T08:03:27.341Z,88.39
2022-11-27T08:05:30.408Z,88.38
2022-11-27T08:07:33.455Z,87.63
2022-11-27T08:09:37.784Z,86.85
2022-11-27T08:11:41.425Z,86.79
2022-11-27T08:13:44.773Z,86.69
2022-11-27T08:15:49.169Z,86.66
2022-11-27T08:17:52.242Z,86.07
2022-11-27T08:19:55.314Z,87.43
2022-11-27T08:21:58.377Z,87.46
2022-11-27T08:24:01.407Z,86.82
2022-11-27T08:26:07.091Z,87.60
2022-11-27T08:28:10.074Z,88.22
2022-11-27T08:30:13.480Z,88.37
2022-11-27T08:32:18.020Z,88.51
2022-11-27T08:34:21.075Z,87.75
2022-11-27T08:36:26.514Z,88.29
2022-11-27T08:38:29.873Z,88.40
2022-11-27T08:40:33.385Z,88.03
2022-11-27T08:42:36.480Z,89.08
2022-11-27T08:44:39.721Z,89.59
2022-11-27T08:46:44.221Z,88.44
2022-11-27T08:48:48.572Z,88.24
2022-11-27T08:50:51.937Z,88.52
2022-11-27T08:52:54.878Z,88.35
2022-11-27T08:54:58.407Z,87.71
2022-11-27T08:57:01.593Z,87.54
2022-11-27T08:59:04.781Z,87.12
2022-11-27T09:01:09.698Z,87.78
2022-11-27T09:03:13.325Z,87.71
2022-11-27T09:05:17.867Z,87.53
2022-11-27T09:07:20.996Z,87.40
2022-11-27T09:09:24.034Z,86.96
2022-11-27T09:11:27.369Z,86.93
2022-11-27T09:13:30.471Z,86.73
2022-11-27T09:15:33.697Z,86.68
2022-11-27T09:17:36.813Z,87.77
2022-11-27T09:19:39.779Z,87.13
2022-11-27T09:21:44.288Z,87.35
2022-11-27T09:23:47.336Z,87.16
2022-11-27T09:25:50.495Z,87.50
2022-11-27T09:27:53.560Z,89.19
2022-11-27T09:29:56.642Z,89.60
2022-11-27T09:31:59.721Z,89.71
2022-11-27T09:34:04.325Z,89.36
2022-11-27T09:36:09.064Z,88.95
2022-11-27T09:38:13.448Z,88.28
2022-11-27T09:40:17.969Z,88.58
2022-11-27T09:42:30.878Z,88.61
2022-11-27T09:44:40.035Z,88.89
2022-11-27T09:46:44.149Z,87.51
2022-11-27T09:48:50.508Z,88.33
2022-11-27T09:50:54.756Z,88.02
2022-11-27T09:53:00.803Z,88.21
2022-11-27T09:55:11.126Z,89.13
2022-11-27T09:57:17.312Z,87.80
2022-11-27T09:59:22.846Z,89.67
2022-11-27T10:01:36.480Z,89.67
2022-11-27T10:03:44.864Z,88.93
2022-11-27T10:05:49.688Z,89.28
2022-11-27T10:08:08.842Z,88.27
2022-11-27T10:10:25.958Z,87.46
2022-11-27T10:12:35.093Z,87.93
2022-11-27T10:14:55.079Z,88.60
2022-11-27T10:17:01.770Z,88.46
2022-11-27T10:19:10.005Z,88.38
2022-11-27T10:21:16.790Z,88.09
2022-11-27T10:23:25.908Z,87.32
2022-11-27T10:25:36.131Z,87.13
2022-11-27T10:27:44.152Z,87.40
2022-11-27T10:29:50.478Z,87.45
2022-11-27T10:31:57.392Z,86.42
2022-11-27T10:34:02.700Z,86.66
2022-11-27T10:36:09.219Z,87.43
2022-11-27T10:38:15.523Z,87.07
2022-11-27T10:40:22.289Z,86.77
2022-11-27T10:42:33.002Z,86.26
2022-11-27T10:44:39.589Z,86.32
2022-11-27T10:46:42.971Z,86.24
2022-11-27T10:48:45.973Z,86.08
2022-11-27T10:50:49.862Z,85.90
2022-11-27T10:52:55.463Z,85.16
2022-11-27T10:55:00.338Z,84.80
2022-11-27T10:57:50.747Z,85.13
2022-11-27T11:00:05.676Z,85.08
2022-11-27T11:02:28.152Z,84.73
2022-11-27T11:04:39.947Z,84.76
2022-11-27T11:06:45.387Z,84.69
2022-11-27T11:08:48.502Z,84.92
2022-11-27T11:10:54.898Z,84.90
2022-11-27T11:13:15.230Z,85.48
2022-11-27T11:15:19.873Z,85.43
2022-11-27T11:17:27.539Z,84.52
2022-11-27T11:19:32.515Z,84.32
2022-11-27T11:21:40.445Z,83.46
2022-11-27T11:23:43.683Z,82.93
2022-11-27T11:25:50.775Z,83.45
2022-11-27T11:27:54.117Z,84.11
2022-11-27T11:29:59.892Z,83.68
2022-11-27T11:32:10.985Z,83.92
2022-11-27T11:34:20.399Z,84.28
2022-11-27T11:36:23.751Z,83.03
2022-11-27T11:38:31.021Z,84.17
2022-11-27T11:40:35.763Z,82.93
2022-11-27T11:42:38.815Z,82.59
2022-11-27T11:44:42.293Z,80.72
2022-11-27T11:46:52.713Z,77.40
2022-11-27T11:49:00.407Z,78.49
2022-11-27T11:51:09.343Z,74.09
2022-11-27T11:53:16.633Z,75.20
2022-11-27T11:55:21.454Z,76.70
2022-11-27T11:58:02.556Z,73.46
2022-11-27T12:00:10.041Z,74.36
2022-11-27T12:02:40.688Z,72.98
2022-11-27T12:05:02.932Z,71.74
2022-11-27T12:07:15.281Z,71.72
2022-11-27T12:09:28.740Z,71.16
2022-11-27T12:11:37.740Z,70.90
2022-11-27T12:13:52.370Z,68.92
2022-11-27T12:16:00.949Z,68.02
2022-11-27T12:18:08.018Z,67.70
2022-11-27T12:20:18.382Z,67.74
2022-11-27T12:22:37.049Z,68.35
2022-11-27T12:24:46.799Z,67.02
2022-11-27T12:27:02.581Z,68.65
2022-11-27T12:29:21.978Z,68.07
2022-11-27T12:31:32.760Z,66.36
2022-11-27T12:33:45.171Z,65.91
2022-11-27T12:35:54.212Z,65.19
2022-11-27T12:38:06.465Z,65.99
2022-11-27T12:40:25.671Z,64.82
2022-11-27T12:42:31.987Z,64.55
2022-11-27T12:44:44.953Z,64.87
2022-11-27T12:46:53.992Z,64.74
2022-11-27T12:49:00.294Z,64.09
2022-11-27T12:51:08.248Z,65.94
2022-11-27T12:53:20.177Z,64.38
2022-11-27T12:55:30.178Z,63.99
2022-11-27T12:57:39.852Z,63.87
2022-11-27T12:59:46.891Z,65.07
2022-11-27T13:01:55.414Z,63.92
2022-11-27T13:04:06.838Z,64.80
2022-11-27T13:06:13.573Z,64.42
2022-11-27T13:08:20.114Z,64.95
2022-11-27T13:10:26.584Z,63.30
2022-11-27T13:12:32.828Z,64.40
2022-11-27T13:14:37.081Z,64.21
2022-11-27T13:16:46.738Z,63.15
2022-11-27T13:18:53.153Z,62.91
2022-11-27T13:20:59.496Z,64.14
2022-11-27T13:23:03.931Z,63.30
2022-11-27T13:25:07.676Z,62.96
2022-11-27T13:27:13.460Z,62.59
2022-11-27T13:29:20.188Z,63.65
2022-11-27T13:31:25.392Z,64.45
2022-11-27T13:33:37.691Z,63.27
2022-11-27T13:35:42.061Z,63.50
2022-11-27T13:37:46.161Z,63.69
2022-11-27T13:39:50.674Z,62.20
2022-11-27T13:42:03.901Z,63.81
2022-11-27T13:44:11.571Z,63.82
2022-11-27T13:46:21.946Z,65.03
2022-11-27T13:48:33.113Z,63.80
2022-11-27T13:50:44.434Z,63.00
2022-11-27T13:52:57.269Z,63.60
2022-11-27T13:55:03.152Z,64.55
2022-11-27T13:57:14.398Z,64.75
2022-11-27T13:59:19.543Z,62.78
2022-11-27T14:01:24.631Z,64.30
2022-11-27T14:03:29.139Z,64.93
2022-11-27T14:05:37.783Z,63.86
2022-11-27T14:07:42.909Z,64.12
2022-11-27T14:09:48.024Z,63.55
2022-11-27T14:11:53.517Z,64.37
2022-11-27T14:13:57.848Z,64.45
2022-11-27T14:16:02.747Z,64.80
2022-11-27T14:18:09.402Z,64.10
2022-11-27T14:20:30.531Z,63.84
2022-11-27T14:23:09.923Z,65.51
2022-11-27T14:25:18.964Z,63.41
2022-11-27T14:27:25.414Z,63.96
2022-11-27T14:29:31.314Z,64.85
2022-11-27T14:31:36.385Z,63.49
2022-11-27T14:34:13.492Z,64.13
2022-11-27T14:36:08.963Z,64.05
2022-11-27T14:38:12.655Z,64.12
2022-11-27T14:40:16.829Z,64.29
2022-11-27T14:42:28.120Z,64.57
2022-11-27T14:44:32.723Z,64.20
2022-11-27T14:46:37.662Z,64.05
2022-11-27T14:48:44.708Z,65.85
2022-11-27T14:50:48.674Z,63.63
2022-11-27T14:52:54.123Z,64.27
2022-11-27T14:54:58.448Z,65.19
2022-11-27T14:57:01.783Z,65.01
2022-11-27T14:59:06.736Z,64.42
2022-11-27T15:01:23.473Z,64.07
2022-11-27T15:03:27.538Z,64.15
2022-11-27T15:05:37.995Z,64.00
2022-11-27T15:07:47.886Z,64.72
2022-11-27T15:09:55.382Z,65.28
2022-11-27T15:12:02.054Z,64.47
2022-11-27T15:14:07.933Z,64.64
2022-11-27T15:16:15.919Z,65.05
2022-11-27T15:18:23.273Z,65.51
2022-11-27T15:20:29.704Z,65.94
2022-11-27T15:22:33.608Z,65.82
2022-11-27T15:24:37.775Z,66.22
2022-11-27T15:26:43.289Z,65.26
2022-11-27T15:28:52.771Z,64.87
2022-11-27T15:30:57.975Z,65.43
2022-11-27T15:33:01.260Z,65.43
2022-11-27T15:35:14.205Z,65.54
2022-11-27T15:37:23.439Z,65.71
2022-11-27T15:39:28.590Z,66.19
2022-11-27T15:41:31.754Z,66.25
2022-11-27T15:43:34.982Z,64.54
2022-11-27T15:45:38.131Z,65.55
2022-11-27T15:47:42.528Z,65.36
2022-11-27T15:49:46.153Z,65.96
2022-11-27T15:51:49.247Z,65.94
2022-11-27T15:53:53.438Z,65.54
2022-11-27T15:55:56.526Z,65.56
2022-11-27T15:57:59.539Z,65.05
2022-11-27T16:00:04.080Z,65.74
2022-11-27T16:02:17.967Z,64.94
2022-11-27T16:04:25.064Z,64.95
2022-11-27T16:06:28.177Z,64.69
2022-11-27T16:08:31.256Z,64.13
2022-11-27T16:10:34.536Z,65.45
2022-11-27T16:12:38.784Z,65.80
2022-11-27T16:14:42.235Z,65.45
2022-11-27T16:16:45.674Z,66.19
2022-11-27T16:18:48.878Z,68.00
2022-11-27T16:20:53.270Z,67.53
2022-11-27T16:22:56.542Z,67.70
2022-11-27T16:24:59.582Z,67.57
2022-11-27T16:27:02.675Z,67.64
2022-11-27T16:29:05.937Z,67.88
2022-11-27T16:31:10.644Z,67.68
2022-11-27T16:33:13.833Z,68.79
2022-11-27T16:35:16.915Z,68.20
2022-11-27T16:37:23.294Z,67.91
2022-11-27T16:39:26.975Z,68.01
2022-11-27T16:41:30.063Z,67.75
2022-11-27T16:43:36.297Z,68.05
2022-11-27T16:45:40.237Z,66.57
2022-11-27T16:47:44.910Z,66.53
2022-11-27T16:49:50.192Z,65.61
2022-11-27T16:51:53.452Z,65.53
2022-11-27T16:54:01.933Z,66.22
2022-11-27T16:56:05.554Z,66.70
2022-11-27T16:58:08.816Z,67.40
2022-11-27T17:00:12.541Z,67.40
2022-11-27T17:02:15.953Z,67.48
2022-11-27T17:04:20.551Z,68.41
2022-11-27T17:06:26.561Z,69.08
2022-11-27T17:08:29.657Z,67.46
2022-11-27T17:10:34.165Z,69.09
2022-11-27T17:12:37.247Z,69.03
2022-11-27T17:14:42.506Z,69.06
2022-11-27T17:16:45.804Z,69.95
2022-11-27T17:18:50.326Z,69.62
2022-11-27T17:20:53.552Z,70.41
2022-11-27T17:22:56.764Z,69.64
2022-11-27T17:25:00.214Z,70.85
2022-11-27T17:27:04.883Z,70.51
2022-11-27T17:29:07.967Z,70.89
2022-11-27T17:31:11.885Z,72.07
2022-11-27T17:33:15.369Z,72.26
2022-11-27T17:35:18.551Z,70.87
2022-11-27T17:37:22.085Z,71.65
2022-11-27T17:39:25.140Z,72.61
2022-11-27T17:41:28.217Z,72.60
2022-11-27T17:43:32.584Z,72.32
2022-11-27T17:45:35.895Z,72.07
2022-11-27T17:47:39.104Z,71.87
2022-11-27T17:49:42.904Z,71.00
2022-11-27T17:51:46.928Z,72.34
2022-11-27T17:53:50.797Z,72.71
2022-11-27T17:55:55.510Z,72.80
2022-11-27T17:57:59.356Z,72.12
2022-11-27T18:00:03.968Z,72.17
2022-11-27T18:02:17.837Z,72.36
2022-11-27T18:04:21.495Z,72.48
2022-11-27T18:06:24.581Z,72.40
2022-11-27T18:08:28.136Z,72.36
2022-11-27T18:10:31.309Z,72.73
2022-11-27T18:12:34.585Z,73.07
2022-11-27T18:14:38.049Z,71.56
2022-11-27T18:16:42.835Z,72.02
2022-11-27T18:18:46.549Z,73.78
2022-11-27T18:20:49.680Z,74.34
2022-11-27T18:22:52.853Z,74.16
2022-11-27T18:24:56.196Z,72.60
2022-11-27T18:27:08.174Z,73.56
2022-11-27T18:29:12.216Z,74.51
2022-11-27T18:31:17.636Z,74.97
2022-11-27T18:33:23.534Z,74.01
2022-11-27T18:35:26.814Z,74.70
2022-11-27T18:37:30.034Z,74.83
2022-11-27T18:39:33.424Z,74.98
2022-11-27T18:41:37.228Z,74.07
2022-11-27T18:43:40.570Z,75.18
2022-11-27T18:45:43.985Z,75.15
2022-11-27T18:47:47.248Z,73.49
2022-11-27T18:49:52.179Z,73.02
2022-11-27T18:51:56.479Z,72.89
2022-11-27T18:53:59.995Z,74.54
2022-11-27T18:56:05.301Z,74.17
2022-11-27T18:58:09.001Z,74.58
2022-11-27T19:00:14.057Z,74.56
2022-11-27T19:02:17.456Z,74.50
2022-11-27T19:04:20.665Z,76.02
2022-11-27T19:06:25.561Z,76.10
2022-11-27T19:08:28.777Z,75.74
2022-11-27T19:10:31.997Z,75.80
2022-11-27T19:12:35.195Z,76.24
2022-11-27T19:14:38.532Z,76.96
2022-11-27T19:16:46.104Z,75.61
2022-11-27T19:18:50.181Z,76.16
2022-11-27T19:20:55.145Z,76.56
2022-11-27T19:23:00.438Z,76.96
2022-11-27T19:25:03.725Z,76.99
2022-11-27T19:27:06.967Z,77.13
2022-11-27T19:29:16.361Z,76.98
2022-11-27T19:31:21.176Z,77.90
2022-11-27T19:33:25.200Z,76.85
2022-11-27T19:35:28.356Z,77.38
2022-11-27T19:37:34.722Z,77.71
2022-11-27T19:39:40.278Z,78.07
2022-11-27T19:41:43.975Z,78.84
2022-11-27T19:43:47.741Z,78.37
2022-11-27T19:45:51.016Z,79.02
2022-11-27T19:47:54.422Z,77.52
2022-11-27T19:49:59.630Z,78.89
2022-11-27T19:52:02.834Z,77.58
2022-11-27T19:54:10.243Z,79.27
2022-11-27T19:56:16.541Z,78.24
2022-11-27T19:58:19.986Z,77.99
2022-11-27T20:00:23.755Z,77.86
2022-11-27T20:02:27.517Z,78.65
2022-11-27T20:04:30.753Z,77.77
2022-11-27T20:06:33.919Z,76.81
2022-11-27T20:08:37.861Z,77.50
2022-11-27T20:10:41.119Z,75.95
2022-11-27T20:12:45.567Z,76.08
2022-11-27T20:14:49.120Z,76.59
2022-11-27T20:16:52.428Z,76.29
2022-11-27T20:18:56.395Z,76.43
2022-11-27T20:21:05.591Z,77.26
2022-11-27T20:23:08.808Z,77.36
2022-11-27T20:25:19.513Z,77.37
2022-11-27T20:27:23.317Z,79.15
2022-11-27T20:29:27.845Z,78.06
2022-11-27T20:31:32.660Z,79.32
2022-11-27T20:33:35.900Z,80.04
2022-11-27T20:35:42.616Z,79.92
2022-11-27T20:37:45.708Z,80.34
2022-11-27T20:39:49.472Z,80.31
2022-11-27T20:41:53.670Z,81.14
2022-11-27T20:43:58.424Z,80.23
2022-11-27T20:46:02.988Z,80.54
2022-11-27T20:48:08.938Z,81.54
2022-11-27T20:50:13.080Z,80.80
2022-11-27T20:52:18.909Z,82.20
2022-11-27T20:54:23.115Z,81.86
2022-11-27T20:56:27.147Z,82.51
2022-11-27T20:58:30.283Z,81.73
2022-11-27T21:00:33.782Z,80.18
2022-11-27T21:02:41.705Z,81.09
2022-11-27T21:04:44.949Z,80.98
2022-11-27T21:06:50.132Z,80.86
2022-11-27T21:08:54.851Z,80.57
2022-11-27T21:10:58.627Z,80.61
2022-11-27T21:13:01.889Z,81.11
2022-11-27T21:15:05.755Z,80.84
2022-11-27T21:17:08.963Z,81.08
2022-11-27T21:19:16.370Z,81.56
2022-11-27T21:21:19.415Z,81.74
2022-11-27T21:23:22.834Z,82.35
2022-11-27T21:25:27.242Z,81.06
2022-11-27T21:27:30.812Z,82.31
2022-11-27T21:29:34.356Z,81.36
2022-11-27T21:31:39.977Z,82.12
2022-11-27T21:33:47.785Z,81.00
2022-11-27T21:35:56.953Z,80.61
2022-11-27T21:38:00.779Z,81.27
2022-11-27T21:40:04.472Z,80.12
2022-11-27T21:42:07.912Z,81.02
2022-11-27T21:44:11.086Z,80.15
2022-11-27T21:46:17.441Z,80.29
2022-11-27T21:48:20.738Z,80.77
2022-11-27T21:50:23.775Z,82.11
2022-11-27T21:52:28.317Z,80.90
2022-11-27T21:54:31.413Z,81.14
2022-11-27T21:56:37.577Z,81.68
2022-11-27T21:58:40.693Z,81.76
2022-11-27T22:00:43.851Z,83.17
2022-11-27T22:02:46.990Z,82.65
2022-11-27T22:04:50.538Z,82.67
2022-11-27T22:06:53.750Z,82.36
2022-11-27T22:08:59.841Z,83.05
2022-11-27T22:11:03.196Z,83.58
2022-11-27T22:13:06.238Z,82.52
2022-11-27T22:15:10.013Z,83.70
2022-11-27T22:17:13.282Z,82.55
2022-11-27T22:19:18.046Z,84.02
2022-11-27T22:21:21.419Z,84.26
2022-11-27T22:23:24.795Z,84.03
2022-11-27T22:25:29.328Z,83.05
2022-11-27T22:27:32.399Z,82.48
2022-11-27T22:29:35.518Z,82.64
2022-11-27T22:31:39.198Z,82.67
2022-11-27T22:33:43.190Z,82.64
2022-11-27T22:35:46.230Z,83.27
2022-11-27T22:37:49.277Z,83.86
2022-11-27T22:39:52.559Z,82.37
2022-11-27T22:41:56.987Z,82.36
2022-11-27T22:44:02.549Z,82.36
2022-11-27T22:46:07.665Z,81.12
2022-11-27T22:48:10.890Z,81.06
2022-11-27T22:50:13.933Z,80.80
2022-11-27T22:52:16.934Z,80.78
2022-11-27T22:54:20.014Z,81.32
2022-11-27T22:56:23.556Z,81.93
2022-11-27T22:58:29.031Z,82.55
2022-11-27T23:00:32.728Z,84.54
2022-11-27T23:02:38.412Z,84.79
2022-11-27T23:04:42.316Z,83.44
2022-11-27T23:06:48.445Z,84.56
2022-11-27T23:08:52.916Z,83.20
2022-11-27T23:10:55.951Z,82.93
2022-11-27T23:12:59.075Z,83.42
2022-11-27T23:15:03.526Z,81.72
2022-11-27T23:17:06.699Z,82.01
2022-11-27T23:19:10.258Z,80.87
2022-11-27T23:21:15.257Z,81.97
2022-11-27T23:23:18.296Z,80.20
2022-11-27T23:25:21.292Z,81.14
2022-11-27T23:27:24.305Z,81.54
2022-11-27T23:29:27.508Z,81.34
2022-11-27T23:31:35.115Z,81.57
2022-11-27T23:33:39.288Z,81.30
2022-11-27T23:35:42.225Z,80.13
2022-11-27T23:37:45.287Z,80.55
2022-11-27T23:39:48.327Z,81.87
2022-11-27T23:41:51.438Z,81.06
2022-11-27T23:43:55.227Z,80.73
2022-11-27T23:45:59.433Z,80.87
2022-11-27T23:48:03.857Z,81.16
2022-11-27T23:50:08.487Z,81.99
2022-11-27T23:52:16.834Z,82.55
2022-11-27T23:54:20.368Z,81.09
2022-11-27T23:56:25.051Z,82.10
2022-11-27T23:58:28.083Z,81.94
